Time;durP1;ratioP1;P1;durP2;ratioP2;P2;SDS_P1;SDS_P2;PMS_P1;PMS_P2;Temp;Humidity;BMP_temperature;BMP_pressure;BME280_temperature;BME280_humidity;BME280_pressure;Samples;Min_cycle;Max_cycle;Signal;HPM_P1;HPM_P2
2021/12/03 00:00:11;;;;;;;3.60;2.42;;;;;;;-1.05;98.91;100945.31;5016458;28;20045;-73
2021/12/03 00:05:40;;;;;;;3.85;2.63;;;;;;;-1.13;98.31;100934.38;5089086;27;20132;-73
2021/12/03 00:08:07;;;;;;;4.07;2.97;;;;;;;-1.19;98.69;100929.38;5095023;28;20047;-72
2021/12/03 00:10:35;;;;;;;3.35;2.72;;;;;;;-1.16;98.33;100929.31;5092097;28;20036;-72
2021/12/03 00:13:03;;;;;;;4.55;3.33;;;;;;;-1.22;98.90;100932.06;5084302;28;20426;-73
2021/12/03 00:15:30;;;;;;;3.42;2.50;;;;;;;-1.20;98.92;100929.44;5086581;28;20051;-72
2021/12/03 00:17:57;;;;;;;3.30;2.80;;;;;;;-1.22;98.44;100926.06;5092647;28;20040;-72
2021/12/03 00:20:25;;;;;;;3.65;2.47;;;;;;;-1.27;97.88;100933.91;5075282;28;20039;-74
2021/12/03 00:22:57;;;;;;;2.42;2.10;;;;;;;-1.26;98.74;100932.19;5088637;28;20402;-73
2021/12/03 00:25:24;;;;;;;3.38;2.53;;;;;;;-1.20;97.70;100930.31;5092922;28;20078;-75
2021/12/03 00:27:51;;;;;;;2.40;2.20;;;;;;;-1.24;98.47;100939.00;5090047;28;20042;-73
2021/12/03 00:30:18;;;;;;;3.60;2.67;;;;;;;-1.19;98.40;100942.28;5107388;28;20466;-74
2021/12/03 00:33:04;;;;;;;3.10;2.35;;;;;;;-1.17;98.96;100950.81;5101695;28;20528;-74
2021/12/03 00:35:31;;;;;;;3.83;2.53;;;;;;;-1.15;98.68;100946.47;5098199;28;20048;-73
2021/12/03 00:38:00;;;;;;;6.88;3.47;;;;;;;-1.22;98.58;100947.53;5097492;28;20042;-74
2021/12/03 00:40:31;;;;;;;4.13;3.35;;;;;;;-1.24;98.88;100949.28;5096018;28;20055;-73
2021/12/03 00:42:58;;;;;;;5.03;3.97;;;;;;;-1.19;99.23;100947.41;5075781;28;20116;-73
2021/12/03 00:45:25;;;;;;;3.83;2.45;;;;;;;-1.12;98.99;100956.69;5089047;28;20055;-75
2021/12/03 00:47:51;;;;;;;3.40;3.03;;;;;;;-1.02;99.04;100952.94;5094017;28;20032;-75
2021/12/03 00:50:21;;;;;;;7.53;3.00;;;;;;;-0.91;98.54;100953.47;5087871;28;20042;-73
2021/12/03 00:52:48;;;;;;;4.00;3.38;;;;;;;-0.94;99.38;100953.56;5070946;28;20106;-72
2021/12/03 00:55:16;;;;;;;3.90;3.50;;;;;;;-0.87;98.76;100954.22;5059893;28;20047;-74
2021/12/03 00:57:44;;;;;;;6.32;4.85;;;;;;;-0.86;98.89;100954.19;5083248;28;20048;-73
2021/12/03 01:00:14;;;;;;;4.30;3.50;;;;;;;-0.84;99.09;100943.84;5090596;28;20632;-72
2021/12/03 01:02:41;;;;;;;7.50;5.00;;;;;;;-0.84;98.40;100949.81;5095628;28;20039;-74
2021/12/03 01:05:08;;;;;;;19.98;4.65;;;;;;;-0.83;99.05;100953.28;5089953;28;20052;-76
2021/12/03 01:07:35;;;;;;;6.10;4.60;;;;;;;-0.84;98.77;100954.97;5072313;28;20044;-73
2021/12/03 01:10:03;;;;;;;23.75;6.38;;;;;;;-0.84;99.45;100947.25;5073706;28;20040;-73
2021/12/03 01:12:32;;;;;;;5.93;4.88;;;;;;;-0.92;99.01;100946.63;5088956;28;20050;-74
2021/12/03 01:14:59;;;;;;;9.15;4.97;;;;;;;-0.90;98.65;100944.88;5086210;28;20032;-73
2021/12/03 01:17:26;;;;;;;8.65;5.18;;;;;;;-0.94;99.02;100942.41;5073841;28;20040;-73
2021/12/03 01:19:54;;;;;;;5.10;4.05;;;;;;;-0.91;98.69;100938.00;5073000;28;20116;-72
2021/12/03 01:22:21;;;;;;;7.60;4.97;;;;;;;-0.88;99.35;100937.06;5075557;28;20479;-73
2021/12/03 01:24:47;;;;;;;8.02;5.65;;;;;;;-0.90;99.51;100942.28;5078875;28;20050;-72
2021/12/03 01:27:14;;;;;;;5.32;4.80;;;;;;;-0.87;99.33;100956.81;5092620;28;20040;-73
2021/12/03 01:29:42;;;;;;;5.55;4.35;;;;;;;-0.77;99.25;100956.47;5097628;28;20040;-75
2021/12/03 01:32:09;;;;;;;12.68;7.30;;;;;;;-0.73;99.40;100953.78;5069982;28;20055;-74
2021/12/03 01:34:36;;;;;;;6.10;4.55;;;;;;;-0.57;99.02;100955.00;5079958;28;20036;-73
2021/12/03 01:37:03;;;;;;;10.25;5.30;;;;;;;-0.52;99.52;100970.31;5080440;28;20032;-72
2021/12/03 01:39:30;;;;;;;7.30;5.63;;;;;;;-0.52;99.39;100972.91;5061274;28;20059;-73
2021/12/03 01:41:57;;;;;;;8.40;5.65;;;;;;;-0.47;99.71;100971.88;5079097;28;20036;-74
2021/12/03 01:44:23;;;;;;;10.30;7.13;;;;;;;-0.44;99.22;100961.47;5076215;28;20043;-73
2021/12/03 01:46:51;;;;;;;5.35;4.50;;;;;;;-0.45;99.31;100970.09;5075026;28;20043;-73
2021/12/03 01:49:18;;;;;;;5.90;4.93;;;;;;;-0.43;99.67;100965.75;5077242;28;20036;-72
2021/12/03 01:51:45;;;;;;;9.10;4.28;;;;;;;-0.51;99.44;100959.97;5078439;28;20036;-73
2021/12/03 01:54:11;;;;;;;7.80;5.53;;;;;;;-0.58;99.41;100960.22;5074264;28;20135;-72
2021/12/03 01:56:39;;;;;;;7.15;5.10;;;;;;;-0.55;99.65;100952.38;5074714;28;20120;-74
2021/12/03 01:59:07;;;;;;;14.70;7.80;;;;;;;-0.40;99.05;100957.06;5055936;28;20040;-72
2021/12/03 02:01:34;;;;;;;14.57;5.63;;;;;;;-0.33;99.65;100964.53;5073815;28;20037;-73
2021/12/03 02:04:03;;;;;;;7.30;6.05;;;;;;;-0.25;99.89;100957.44;5073815;28;20875;-73
2021/12/03 02:06:31;;;;;;;6.25;4.82;;;;;;;-0.20;99.56;100959.84;5077021;28;20048;-72
2021/12/03 02:08:58;;;;;;;21.98;7.63;;;;;;;-0.19;99.41;100957.22;5070295;28;20047;-75
2021/12/03 02:11:25;;;;;;;5.35;4.85;;;;;;;-0.03;99.65;100964.41;5072476;28;20044;-72
2021/12/03 02:13:52;;;;;;;6.35;5.00;;;;;;;0.05;99.57;100957.25;5052163;28;20051;-72
2021/12/03 02:16:20;;;;;;;20.15;6.80;;;;;;;0.12;99.47;100958.72;5074193;28;20097;-73
2021/12/03 02:18:47;;;;;;;8.15;6.30;;;;;;;0.10;99.88;100957.97;5076037;28;20552;-73
2021/12/03 02:21:16;;;;;;;7.70;5.70;;;;;;;0.11;100.00;100951.91;5076089;28;20042;-71
2021/12/03 02:23:44;;;;;;;8.35;6.75;;;;;;;0.21;99.96;100958.44;5074321;28;20056;-73
2021/12/03 02:26:11;;;;;;;8.00;6.43;;;;;;;0.26;99.89;100956.56;5057872;28;20059;-75
2021/12/03 02:28:45;;;;;;;7.20;5.75;;;;;;;0.25;100.00;100956.56;5077127;28;20097;-71
2021/12/03 02:31:12;;;;;;;27.30;6.47;;;;;;;0.32;100.00;100958.09;5066482;28;20051;-73
2021/12/03 02:33:39;;;;;;;12.50;8.60;;;;;;;0.27;100.00;100953.06;5075729;28;20078;-72
2021/12/03 02:36:07;;;;;;;9.57;5.13;;;;;;;0.29;100.00;100959.00;5060996;28;20044;-73
2021/12/03 02:38:35;;;;;;;8.75;5.82;;;;;;;0.29;100.00;100953.00;5086008;28;20036;-71
2021/12/03 02:41:02;;;;;;;4.60;3.80;;;;;;;0.39;99.88;100951.81;5083536;28;20042;-73
2021/12/03 02:43:29;;;;;;;6.85;4.85;;;;;;;0.45;99.69;100952.41;5058765;28;20063;-73
2021/12/03 02:45:57;;;;;;;6.00;4.70;;;;;;;0.45;99.67;100951.59;5074300;28;20133;-72
2021/12/03 02:48:24;;;;;;;8.80;6.70;;;;;;;0.40;99.90;100951.75;5055082;28;20044;-72
2021/12/03 02:50:52;;;;;;;8.73;4.65;;;;;;;0.34;99.81;100954.53;5073670;28;20075;-72
2021/12/03 02:53:18;;;;;;;6.88;5.25;;;;;;;0.36;99.78;100959.66;5056125;28;20265;-72
2021/12/03 02:55:47;;;;;;;15.23;4.57;;;;;;;0.36;100.00;100968.25;5076392;28;20040;-73
2021/12/03 02:58:14;;;;;;;5.22;4.68;;;;;;;0.38;100.00;100963.03;5070216;28;20048;-71
2021/12/03 03:00:41;;;;;;;6.32;3.28;;;;;;;0.39;99.85;100978.47;5076093;28;20040;-72
2021/12/03 03:03:08;;;;;;;12.80;6.00;;;;;;;0.44;100.00;100974.00;5071943;28;20055;-72
2021/12/03 03:05:35;;;;;;;22.77;7.88;;;;;;;0.50;99.73;100972.94;5076143;28;20060;-70
2021/12/03 03:08:03;;;;;;;13.77;5.25;;;;;;;0.56;100.00;100970.16;5082067;28;20032;-75
2021/12/03 03:10:33;;;;;;;6.07;4.45;;;;;;;0.61;99.87;100963.94;5077808;28;20148;-70
2021/12/03 03:13:02;;;;;;;6.78;4.55;;;;;;;0.62;100.00;100950.06;5085939;28;20046;-72
2021/12/03 03:15:29;;;;;;;17.02;6.63;;;;;;;0.62;99.86;100952.66;5080972;28;20048;-72
2021/12/03 03:17:56;;;;;;;9.35;5.68;;;;;;;0.63;100.00;100951.78;5079995;28;20048;-69
2021/12/03 03:20:23;;;;;;;10.70;5.40;;;;;;;0.63;99.84;100941.44;5067183;28;20055;-71
2021/12/03 03:22:50;;;;;;;8.60;6.13;;;;;;;0.68;100.00;100936.97;5092403;28;20074;-72
2021/12/03 03:25:19;;;;;;;9.95;7.15;;;;;;;0.75;99.88;100948.75;5095174;28;20064;-71
2021/12/03 03:27:53;;;;;;;7.05;6.22;;;;;;;0.74;99.75;100941.91;5075488;28;20078;-73
2021/12/03 03:30:23;;;;;;;13.32;6.40;;;;;;;0.77;100.00;100943.53;5081787;28;20048;-71
2021/12/03 03:32:51;;;;;;;16.88;8.10;;;;;;;0.77;99.64;100939.22;5079713;28;20052;-72
2021/12/03 03:35:18;;;;;;;16.83;6.05;;;;;;;0.81;100.00;100940.78;5075843;28;20044;-72
2021/12/03 03:37:44;;;;;;;5.95;4.68;;;;;;;0.86;99.74;100944.06;5077083;28;20428;-71
2021/12/03 03:40:11;;;;;;;9.30;5.20;;;;;;;0.90;100.00;100954.19;5079603;28;20040;-72
2021/12/03 03:42:38;;;;;;;15.85;5.85;;;;;;;0.93;100.00;100961.84;5073940;28;20038;-72
2021/12/03 03:45:09;;;;;;;6.15;4.18;;;;;;;0.99;100.00;100945.28;5071419;28;20052;-72
2021/12/03 03:47:38;;;;;;;6.35;5.60;;;;;;;1.00;100.00;100944.38;5076540;28;20044;-73
2021/12/03 03:50:06;;;;;;;14.02;5.90;;;;;;;1.00;100.00;100941.78;5077008;28;20032;-74
2021/12/03 03:52:33;;;;;;;8.77;5.03;;;;;;;1.06;100.00;100936.38;5078857;28;20056;-72
2021/12/03 03:55:00;;;;;;;7.47;5.18;;;;;;;1.02;100.00;100935.66;5069033;28;20032;-72
2021/12/03 03:57:28;;;;;;;8.77;5.38;;;;;;;0.92;100.00;100929.13;5067108;28;20081;-72
2021/12/03 03:59:55;;;;;;;8.35;5.85;;;;;;;0.84;100.00;100927.75;5073334;28;20495;-72
2021/12/03 04:02:22;;;;;;;8.88;4.95;;;;;;;0.77;99.87;100923.72;5075573;28;20060;-72
2021/12/03 04:04:50;;;;;;;16.27;6.65;;;;;;;0.73;99.81;100921.28;5076819;28;20056;-71
2021/12/03 04:07:17;;;;;;;7.28;5.55;;;;;;;0.76;100.00;100918.56;5074860;28;20137;-73
2021/12/03 04:09:43;;;;;;;11.43;5.78;;;;;;;0.81;99.78;100910.59;5073776;28;20055;-73
2021/12/03 04:12:11;;;;;;;8.55;4.43;;;;;;;0.84;99.88;100915.66;5073602;28;20205;-72
2021/12/03 04:14:37;;;;;;;11.98;5.22;;;;;;;0.90;100.00;100914.59;5072393;28;20050;-75
2021/12/03 04:17:04;;;;;;;8.38;5.30;;;;;;;0.96;100.00;100922.97;5068752;28;20040;-72
2021/12/03 04:19:31;;;;;;;20.50;5.32;;;;;;;1.03;100.00;100926.13;5075837;28;20048;-72
2021/12/03 04:22:00;;;;;;;13.90;5.32;;;;;;;1.07;100.00;100923.38;5072588;28;20048;-72
2021/12/03 04:24:28;;;;;;;7.65;6.18;;;;;;;1.12;100.00;100926.66;5073217;28;20056;-71
2021/12/03 04:26:55;;;;;;;10.90;5.70;;;;;;;1.16;100.00;100917.03;5070813;28;20059;-71
2021/12/03 04:29:22;;;;;;;6.80;5.47;;;;;;;1.24;100.00;100917.59;5073513;28;20052;-72
2021/12/03 04:31:48;;;;;;;5.55;4.20;;;;;;;1.22;100.00;100909.88;5076917;28;20036;-71
2021/12/03 04:34:15;;;;;;;6.95;4.93;;;;;;;1.25;100.00;100908.91;5073762;28;20040;-72
2021/12/03 04:36:42;;;;;;;10.30;6.20;;;;;;;1.27;100.00;100928.66;5072285;28;20048;-73
2021/12/03 04:39:12;;;;;;;14.07;6.22;;;;;;;1.31;100.00;100921.63;5075115;28;20048;-71
2021/12/03 04:41:41;;;;;;;9.30;4.55;;;;;;;1.30;100.00;100909.56;5054724;28;20061;-73
2021/12/03 04:44:08;;;;;;;8.13;5.63;;;;;;;1.36;100.00;100915.38;5055038;28;20490;-71
2021/12/03 04:46:36;;;;;;;7.45;4.93;;;;;;;1.37;100.00;100918.78;5074479;28;20036;-72
2021/12/03 04:49:03;;;;;;;4.25;3.05;;;;;;;1.38;100.00;100912.72;5076878;28;20037;-72
2021/12/03 04:51:30;;;;;;;8.00;4.90;;;;;;;1.40;100.00;100916.91;5063919;28;20233;-75
2021/12/03 04:53:58;;;;;;;6.43;5.38;;;;;;;1.42;100.00;100914.28;5082946;28;20117;-72
2021/12/03 04:56:27;;;;;;;15.30;5.55;;;;;;;1.45;100.00;100925.34;5080565;28;20098;-71
2021/12/03 04:58:54;;;;;;;4.65;3.45;;;;;;;1.49;100.00;100920.91;5061647;28;20044;-73
2021/12/03 05:01:21;;;;;;;9.38;5.32;;;;;;;1.45;100.00;100909.81;5076788;28;20048;-72
2021/12/03 05:03:49;;;;;;;3.95;2.85;;;;;;;1.54;100.00;100913.78;5049402;28;20059;-72
2021/12/03 05:06:19;;;;;;;6.05;4.60;;;;;;;1.53;100.00;100912.97;5057404;28;20117;-72
2021/12/03 05:08:48;;;;;;;11.20;7.38;;;;;;;1.55;100.00;100905.97;5083114;28;20063;-73
2021/12/03 05:11:15;;;;;;;8.18;5.07;;;;;;;1.56;100.00;100915.41;5076784;28;20051;-73
2021/12/03 05:13:43;;;;;;;9.32;5.32;;;;;;;1.62;100.00;100905.66;5079155;28;20044;-73
2021/12/03 05:16:09;;;;;;;9.10;5.25;;;;;;;1.61;100.00;100900.53;5082328;28;20044;-72
2021/12/03 05:18:36;;;;;;;13.88;8.15;;;;;;;1.66;100.00;100908.97;5092233;28;20044;-73
2021/12/03 05:21:04;;;;;;;5.25;3.90;;;;;;;1.71;100.00;100897.50;5096204;28;20059;-74
2021/12/03 05:23:32;;;;;;;15.95;7.55;;;;;;;1.72;100.00;100904.38;5079947;28;20486;-73
2021/12/03 05:26:00;;;;;;;9.32;5.38;;;;;;;1.76;100.00;100900.78;5075953;28;20136;-73
2021/12/03 05:28:29;;;;;;;13.80;6.07;;;;;;;1.81;100.00;100887.63;5073217;28;20182;-73
2021/12/03 05:30:57;;;;;;;11.15;6.45;;;;;;;1.82;100.00;100899.66;5076191;28;20131;-72
2021/12/03 05:33:24;;;;;;;4.78;4.10;;;;;;;1.84;100.00;100883.19;5073990;28;20044;-72
2021/12/03 05:35:51;;;;;;;8.55;5.25;;;;;;;1.88;100.00;100889.06;5058357;28;20141;-70
2021/12/03 05:38:17;;;;;;;18.30;6.43;;;;;;;1.87;100.00;100895.97;5073243;28;20046;-69
2021/12/03 05:40:44;;;;;;;13.52;7.97;;;;;;;1.93;100.00;100903.50;5071799;28;20287;-68
2021/12/03 05:43:11;;;;;;;15.05;5.82;;;;;;;1.89;99.89;100896.75;5072752;28;20044;-72
2021/12/03 05:45:38;;;;;;;8.38;5.65;;;;;;;1.90;99.89;100900.19;5076121;28;20040;-71
2021/12/03 05:48:06;;;;;;;19.30;5.55;;;;;;;1.92;100.00;100906.16;5079869;28;20044;-71
2021/12/03 05:50:34;;;;;;;12.68;7.10;;;;;;;1.89;99.64;100911.44;5080429;28;20507;-70
2021/12/03 05:53:01;;;;;;;17.67;6.90;;;;;;;1.86;100.00;100907.25;5078947;28;20036;-72
2021/12/03 05:55:28;;;;;;;11.80;6.75;;;;;;;1.87;99.90;100901.16;5075622;28;20428;-69
2021/12/03 05:57:55;;;;;;;9.52;5.32;;;;;;;1.88;99.79;100894.25;5078643;28;20055;-71
2021/12/03 06:00:24;;;;;;;6.75;5.22;;;;;;;1.83;100.00;100894.44;5076588;28;20033;-72
2021/12/03 06:02:52;;;;;;;8.18;5.68;;;;;;;1.78;99.64;100906.72;5074477;28;20032;-68
2021/12/03 06:05:21;;;;;;;4.65;2.88;;;;;;;1.86;99.72;100909.84;5077083;28;20055;-70
2021/12/03 06:07:48;;;;;;;8.30;5.43;;;;;;;1.83;99.66;100912.56;5078766;28;20078;-72
2021/12/03 06:10:15;;;;;;;9.00;4.97;;;;;;;1.80;99.73;100902.31;5061454;28;20063;-69
2021/12/03 06:12:41;;;;;;;9.95;6.68;;;;;;;1.81;99.62;100909.19;5079983;28;20044;-71
2021/12/03 06:15:08;;;;;;;9.48;6.90;;;;;;;1.83;99.62;100903.94;5079710;28;20387;-70
2021/12/03 06:17:35;;;;;;;13.20;5.63;;;;;;;1.72;99.74;100899.22;5077848;28;20044;-70
2021/12/03 06:20:02;;;;;;;8.35;5.38;;;;;;;1.75;99.40;100904.28;5079943;28;20118;-69
2021/12/03 06:22:29;;;;;;;14.18;6.20;;;;;;;1.73;99.51;100908.66;5079324;28;20048;-72
2021/12/03 06:24:57;;;;;;;9.52;7.43;;;;;;;1.69;99.74;100909.69;5079407;28;20131;-69
2021/12/03 06:27:25;;;;;;;4.82;3.08;;;;;;;1.75;99.57;100903.41;5076584;28;20044;-70
2021/12/03 06:29:51;;;;;;;5.80;4.22;;;;;;;1.74;99.62;100902.59;5055646;28;20295;-69
2021/12/03 06:32:18;;;;;;;6.43;5.07;;;;;;;1.74;99.57;100904.31;5078070;28;20051;-70
2021/12/03 06:34:44;;;;;;;14.13;6.47;;;;;;;1.82;99.14;100899.66;5073775;28;20502;-73
2021/12/03 06:37:11;;;;;;;28.30;5.50;;;;;;;1.78;99.79;100887.75;5071688;28;20040;-72
2021/12/03 06:39:39;;;;;;;9.57;4.47;;;;;;;1.72;99.47;100883.66;5080072;28;20124;-72
2021/12/03 06:42:06;;;;;;;17.55;6.05;;;;;;;1.77;99.47;100886.06;5062442;28;20121;-73
2021/12/03 06:44:33;;;;;;;12.35;5.32;;;;;;;1.79;99.53;100892.03;5074930;28;20133;-72
2021/12/03 06:47:02;;;;;;;13.00;6.55;;;;;;;1.73;99.41;100879.31;5081984;28;20418;-72
2021/12/03 06:49:30;;;;;;;11.55;7.15;;;;;;;1.71;99.14;100881.97;5074218;28;20526;-73
2021/12/03 06:52:00;;;;;;;6.38;3.95;;;;;;;1.69;99.28;100894.13;5083400;28;20506;-73
2021/12/03 06:54:29;;;;;;;6.68;3.58;;;;;;;1.69;99.32;100888.97;5081224;28;20044;-72
2021/12/03 06:56:57;;;;;;;5.35;3.28;;;;;;;1.74;99.23;100892.22;5089681;28;20068;-72
2021/12/03 06:59:24;;;;;;;11.43;4.10;;;;;;;1.74;99.22;100892.22;5094056;28;20051;-72
2021/12/03 07:01:52;;;;;;;11.13;4.78;;;;;;;1.69;99.54;100893.31;5085200;28;20498;-73
2021/12/03 07:04:19;;;;;;;13.75;6.10;;;;;;;1.68;99.06;100891.63;5080484;28;20046;-73
2021/12/03 07:06:46;;;;;;;3.35;2.90;;;;;;;1.72;99.07;100878.50;5078641;28;20052;-74
2021/12/03 07:09:13;;;;;;;7.30;3.60;;;;;;;1.75;99.18;100883.56;5067705;28;20060;-72
2021/12/03 07:11:40;;;;;;;10.68;5.25;;;;;;;1.76;98.90;100889.56;5075731;28;20040;-73
2021/12/03 07:14:09;;;;;;;6.50;3.35;;;;;;;1.77;98.78;100897.25;5109208;28;20126;-73
2021/12/03 07:16:36;;;;;;;10.82;3.58;;;;;;;1.81;98.90;100893.66;5105648;28;20065;-71
2021/12/03 07:19:03;;;;;;;4.85;3.40;;;;;;;1.78;99.22;100898.13;5094523;28;20063;-73
2021/12/03 07:21:30;;;;;;;9.18;5.25;;;;;;;1.82;98.77;100891.88;5064952;28;20044;-73
2021/12/03 07:23:57;;;;;;;22.25;6.13;;;;;;;1.80;98.93;100883.38;5081716;28;20056;-71
2021/12/03 07:26:24;;;;;;;8.00;2.72;;;;;;;1.83;98.65;100885.81;5084720;28;20067;-74
2021/12/03 07:28:51;;;;;;;7.40;4.55;;;;;;;1.83;98.29;100886.66;5079258;28;20123;-71
2021/12/03 07:31:19;;;;;;;4.78;2.17;;;;;;;1.84;98.14;100885.78;5085177;28;20044;-72
2021/12/03 07:33:46;;;;;;;6.18;2.67;;;;;;;1.85;98.11;100884.00;5075124;28;20059;-72
2021/12/03 07:36:13;;;;;;;5.40;2.88;;;;;;;1.78;98.07;100880.00;5066803;28;20059;-73
2021/12/03 07:38:40;;;;;;;16.80;4.53;;;;;;;1.79;97.83;100877.31;5058094;28;20050;-73
2021/12/03 07:41:07;;;;;;;5.20;3.28;;;;;;;1.82;97.79;100886.72;5085344;28;20055;-73
2021/12/03 07:43:33;;;;;;;4.38;2.70;;;;;;;1.84;97.95;100877.13;5078789;28;20040;-73
2021/12/03 07:46:01;;;;;;;2.92;1.75;;;;;;;1.91;97.31;100874.25;5079039;28;20126;-72
2021/12/03 07:48:29;;;;;;;4.50;2.35;;;;;;;1.91;97.59;100865.59;5088262;28;20048;-72
2021/12/03 07:50:57;;;;;;;6.45;3.10;;;;;;;1.95;96.18;100872.38;5063698;28;20059;-75
2021/12/03 07:53:24;;;;;;;5.35;3.03;;;;;;;2.00;96.30;100873.84;5078329;28;20083;-73
2021/12/03 07:55:52;;;;;;;5.00;3.03;;;;;;;2.03;95.70;100873.72;5060340;28;20109;-72
2021/12/03 07:58:19;;;;;;;23.63;3.35;;;;;;;2.01;95.70;100880.69;5079759;28;20044;-72
2021/12/03 08:00:47;;;;;;;10.05;3.05;;;;;;;2.11;95.13;100888.94;5075401;28;20136;-72
2021/12/03 08:03:14;;;;;;;7.43;3.83;;;;;;;2.12;95.34;100888.88;5079529;28;20042;-71
2021/12/03 08:05:41;;;;;;;10.93;4.20;;;;;;;2.12;93.75;100882.84;5074696;28;20083;-73
2021/12/03 08:08:08;;;;;;;7.82;1.98;;;;;;;2.17;94.26;100881.75;5076810;28;20134;-72
2021/12/03 08:10:36;;;;;;;20.10;5.10;;;;;;;2.18;94.17;100886.00;5068246;28;20037;-73
2021/12/03 08:13:03;;;;;;;3.78;2.38;;;;;;;2.16;93.87;100877.47;5085355;28;20071;-72
2021/12/03 08:15:30;;;;;;;7.07;3.10;;;;;;;2.24;94.02;100884.91;5056926;28;20055;-73
2021/12/03 08:17:57;;;;;;;6.47;1.80;;;;;;;2.38;93.72;100878.22;5090005;28;20054;-73
2021/12/03 08:20:23;;;;;;;5.68;2.92;;;;;;;2.43;93.52;100868.47;5082516;28;20095;-73
2021/12/03 08:22:51;;;;;;;4.00;1.63;;;;;;;2.53;93.30;100874.94;5083840;28;20131;-72
2021/12/03 08:25:18;;;;;;;1.27;1.17;;;;;;;2.60;93.27;100877.22;5087531;28;20530;-72
2021/12/03 08:27:44;;;;;;;1.70;1.45;;;;;;;2.63;92.21;100871.03;5064361;28;20126;-73
2021/12/03 08:30:13;;;;;;;16.75;4.07;;;;;;;2.67;92.88;100859.59;5071909;28;20043;-72
2021/12/03 08:32:41;;;;;;;4.70;2.85;;;;;;;2.72;92.83;100870.63;5083323;28;20049;-73
2021/12/03 08:35:08;;;;;;;3.63;1.55;;;;;;;2.74;91.81;100864.47;5091852;28;20086;-72
2021/12/03 08:37:34;;;;;;;10.65;2.72;;;;;;;2.76;91.88;100852.28;5077614;28;20072;-73
2021/12/03 08:40:03;;;;;;;4.22;1.90;;;;;;;2.78;92.68;100840.09;5078174;28;20051;-73
2021/12/03 08:42:30;;;;;;;3.47;1.98;;;;;;;2.73;92.36;100841.19;5079676;28;20047;-72
2021/12/03 08:44:58;;;;;;;2.95;1.95;;;;;;;2.72;92.68;100832.56;5080046;28;20051;-72
2021/12/03 08:47:25;;;;;;;2.05;0.70;;;;;;;2.84;91.77;100841.53;5077181;28;20052;-72
2021/12/03 08:49:54;;;;;;;4.93;3.28;;;;;;;2.88;91.37;100843.09;5075644;28;20392;-71
2021/12/03 08:55:07;;;;;;;5.13;1.38;;;;;;;2.92;91.91;100842.00;5036907;28;20055;-73
2021/12/03 08:57:35;;;;;;;3.45;1.85;;;;;;;2.94;91.62;100843.66;5081378;28;20097;-72
2021/12/03 09:00:06;;;;;;;4.72;2.58;;;;;;;2.95;91.12;100850.53;5080894;28;20124;-74
2021/12/03 09:02:33;;;;;;;4.65;1.98;;;;;;;2.95;91.46;100847.06;5080162;28;20133;-72
2021/12/03 09:04:59;;;;;;;8.73;2.47;;;;;;;3.00;91.32;100839.91;5079604;28;20056;-71
2021/12/03 09:07:26;;;;;;;1.70;1.58;;;;;;;2.98;90.68;100849.53;5106811;28;20091;-71
2021/12/03 09:09:53;;;;;;;5.25;2.47;;;;;;;3.05;89.81;100843.13;5098280;28;20038;-70
2021/12/03 09:12:21;;;;;;;6.45;2.22;;;;;;;3.07;90.52;100841.31;5094291;28;20048;-73
2021/12/03 09:14:50;;;;;;;6.13;2.35;;;;;;;3.12;89.69;100841.94;5093364;28;20036;-74
2021/12/03 09:17:31;;;;;;;4.15;1.95;;;;;;;3.22;90.01;100841.41;5091964;28;20044;-72
2021/12/03 09:20:04;;;;;;;2.35;1.58;;;;;;;3.30;89.08;100845.34;5066959;28;20143;-73
2021/12/03 09:22:37;;;;;;;1.48;1.05;;;;;;;3.26;88.02;100838.59;5087211;28;20048;-72
2021/12/03 09:25:05;;;;;;;3.95;1.30;;;;;;;3.31;87.81;100834.06;5080740;28;20040;-72
2021/12/03 09:27:33;;;;;;;17.98;2.78;;;;;;;3.39;87.92;100829.34;5087209;28;20109;-74
2021/12/03 09:30:02;;;;;;;6.10;2.95;;;;;;;3.51;86.90;100835.69;5059400;28;20074;-71
2021/12/03 09:32:31;;;;;;;3.90;1.60;;;;;;;3.58;86.82;100830.09;5065050;28;20048;-75
2021/12/03 09:34:58;;;;;;;4.78;1.63;;;;;;;3.72;86.39;100827.66;5084264;28;20040;-72
2021/12/03 09:37:25;;;;;;;0.93;0.85;;;;;;;3.79;85.89;100829.03;5083353;28;20032;-74
2021/12/03 09:39:52;;;;;;;1.80;1.10;;;;;;;3.71;85.15;100818.19;5078663;28;20054;-73
2021/12/03 09:42:20;;;;;;;2.85;1.38;;;;;;;3.71;85.54;100832.91;5076798;28;20064;-73
2021/12/03 09:44:50;;;;;;;1.92;1.20;;;;;;;3.75;85.12;100832.69;5078732;28;20040;-71
2021/12/03 09:47:18;;;;;;;7.80;1.17;;;;;;;3.78;85.47;100834.28;5081992;28;20040;-72
2021/12/03 09:49:46;;;;;;;5.40;2.15;;;;;;;3.82;85.75;100828.88;5091257;28;20041;-73
2021/12/03 09:52:18;;;;;;;3.50;1.85;;;;;;;3.86;85.40;100840.81;5077874;28;20046;-75
2021/12/03 09:54:45;;;;;;;;;;;;;;;3.91;84.91;100830.19;5066867;28;20040;-72
2021/12/03 09:57:15;;;;;;;30.85;2.80;;;;;;;4.00;84.07;100826.19;5076930;28;20042;-73
2021/12/03 10:06:12;;;;;;;3.38;1.10;;;;;;;3.94;85.21;100825.66;5040780;28;20125;-71
2021/12/03 10:17:26;;;;;;;4.25;1.45;;;;;;;4.00;83.93;100796.75;5054451;28;20071;-71
2021/12/03 10:20:11;;;;;;;8.40;2.20;;;;;;;4.02;83.68;100787.97;5064188;28;20129;-73
2021/12/03 10:40:00;;;;;;;;;;;;;;;4.05;83.16;100750.59;4984372;28;20146;-73
2021/12/03 10:42:38;;;;;;;11.63;1.42;;;;;;;4.12;84.13;100744.16;5061763;28;20369;-73
2021/12/03 10:45:19;;;;;;;1.23;1.13;;;;;;;4.24;82.96;100743.47;5058207;28;20045;-72
2021/12/03 10:48:01;;;;;;;2.20;1.55;;;;;;;4.35;82.45;100733.34;5072351;28;20502;-71
2021/12/03 10:50:42;;;;;;;3.80;1.63;;;;;;;4.47;82.60;100724.91;5078523;28;20040;-72
2021/12/03 10:53:23;;;;;;;2.05;1.63;;;;;;;4.63;82.46;100720.53;5090128;28;20051;-72
2021/12/03 10:56:18;;;;;;;0.95;0.85;;;;;;;4.70;82.30;100709.69;5089532;28;20039;-71
2021/12/03 11:13:20;;;;;;;11.45;2.00;;;;;;;4.80;82.73;100664.84;5093389;28;20044;-74
2021/12/03 11:16:22;;;;;;;14.63;2.47;;;;;;;4.79;82.89;100651.94;5067872;28;20036;-72
2021/12/03 11:30:26;;;;;;;8.15;2.83;;;;;;;4.85;83.25;100644.63;5028490;28;20165;-71
2021/12/03 13:15:31;;;;;;;1.55;1.02;;;;;;;5.70;76.87;100461.44;5039850;28;20044;-73
2021/12/03 13:21:25;;;;;;;2.42;0.93;;;;;;;5.62;77.57;100461.09;5039463;28;20132;-73
2021/12/03 14:40:31;;;;;;;10.05;2.05;;;;;;;4.71;84.23;100398.34;5034179;28;20510;-68
2021/12/03 14:43:12;;;;;;;22.40;2.08;;;;;;;4.74;82.97;100392.00;5039075;28;20048;-68
2021/12/03 14:48:40;;;;;;;3.85;2.05;;;;;;;4.79;82.45;100389.97;5042684;28;20051;-70
2021/12/03 14:51:26;;;;;;;2.83;1.70;;;;;;;4.82;83.51;100389.78;5046082;28;20037;-67
2021/12/03 14:57:20;;;;;;;2.00;1.52;;;;;;;4.85;82.14;100373.97;5019016;28;20042;-73
2021/12/03 15:00:06;;;;;;;0.80;0.75;;;;;;;4.90;82.58;100365.91;5038591;28;20116;-68
2021/12/03 15:02:45;;;;;;;1.20;1.05;;;;;;;4.92;82.35;100369.25;5039870;28;20041;-73
2021/12/03 15:05:33;;;;;;;1.08;0.88;;;;;;;4.87;83.12;100381.69;5063233;28;20423;-73
2021/12/03 15:08:04;;;;;;;5.63;2.35;;;;;;;4.84;83.19;100367.09;5073536;28;20044;-70
2021/12/03 15:10:39;;;;;;;3.00;1.70;;;;;;;4.82;84.08;100384.56;5076547;28;20044;-74
2021/12/03 15:13:29;;;;;;;11.40;2.00;;;;;;;4.76;84.44;100392.75;5075444;28;20116;-71
2021/12/03 15:22:13;;;;;;;3.20;1.40;;;;;;;4.68;85.16;100390.72;4978082;28;20046;-72
2021/12/03 15:24:54;;;;;;;1.92;1.25;;;;;;;4.64;85.64;100384.03;5053921;28;20063;-72
2021/12/03 15:27:40;;;;;;;1.42;1.00;;;;;;;4.60;85.92;100380.75;5053310;28;20048;-70
2021/12/03 15:30:24;;;;;;;1.08;0.95;;;;;;;4.60;86.64;100374.72;5073728;28;20070;-70
2021/12/03 15:32:54;;;;;;;1.77;1.15;;;;;;;4.59;86.49;100373.06;5073333;28;20048;-73
2021/12/03 15:35:23;;;;;;;1.40;1.10;;;;;;;4.59;86.83;100365.25;5080183;28;20049;-71
2021/12/03 15:52:25;;;;;;;8.40;1.08;;;;;;;4.42;90.06;100352.44;5064233;28;20063;-69
2021/12/03 16:08:24;;;;;;;2.90;1.52;;;;;;;4.40;89.96;100349.09;5076324;28;20052;-68
2021/12/03 16:10:58;;;;;;;0.77;0.55;;;;;;;4.40;89.74;100341.28;5078250;28;20036;-67
2021/12/03 16:13:35;;;;;;;1.27;0.88;;;;;;;4.43;89.93;100338.50;5072003;28;20040;-69
2021/12/03 16:16:45;;;;;;;5.97;2.25;;;;;;;4.47;89.63;100334.81;5071836;28;20556;-68
2021/12/03 16:19:22;;;;;;;1.00;0.82;;;;;;;4.54;89.35;100325.69;5054513;28;20445;-67
2021/12/03 16:22:11;;;;;;;1.52;1.42;;;;;;;4.53;89.50;100329.22;5072845;28;20043;-66
2021/12/03 16:43:57;;;;;;;1.92;1.05;;;;;;;4.34;92.46;100305.25;5072837;28;20048;-72